sensor_id;sensor_type;location;lat;lon;timestamp;P1;durP1;ratioP1;P2;durP2;ratioP2
33714;SDS011;20043;50.998;4.754;2023-08-17T00:00:41;4.47;;;2.20;;
33714;SDS011;20043;50.998;4.754;2023-08-17T00:03:07;5.40;;;2.20;;
33714;SDS011;20043;50.998;4.754;2023-08-17T00:05:32;5.28;;;1.90;;
33714;SDS011;20043;50.998;4.754;2023-08-17T00:07:59;3.50;;;2.00;;
33714;SDS011;20043;50.998;4.754;2023-08-17T00:10:26;3.60;;;1.85;;
33714;SDS011;20043;50.998;4.754;2023-08-17T00:12:52;6.13;;;2.03;;
33714;SDS011;20043;50.998;4.754;2023-08-17T00:15:17;5.75;;;2.25;;
33714;SDS011;20043;50.998;4.754;2023-08-17T00:17:43;6.28;;;2.00;;
33714;SDS011;20043;50.998;4.754;2023-08-17T00:20:09;6.45;;;2.10;;
33714;SDS011;20043;50.998;4.754;2023-08-17T00:22:35;9.02;;;2.47;;
33714;SDS011;20043;50.998;4.754;2023-08-17T00:25:01;6.88;;;2.13;;
33714;SDS011;20043;50.998;4.754;2023-08-17T00:27:29;5.78;;;2.05;;
33714;SDS011;20043;50.998;4.754;2023-08-17T00:29:57;4.47;;;2.08;;
33714;SDS011;20043;50.998;4.754;2023-08-17T00:32:22;4.57;;;2.20;;
33714;SDS011;20043;50.998;4.754;2023-08-17T00:34:48;10.00;;;2.20;;
33714;SDS011;20043;50.998;4.754;2023-08-17T00:37:13;5.93;;;1.98;;
33714;SDS011;20043;50.998;4.754;2023-08-17T00:39:39;4.28;;;2.08;;
33714;SDS011;20043;50.998;4.754;2023-08-17T00:42:05;8.73;;;2.03;;
33714;SDS011;20043;50.998;4.754;2023-08-17T00:44:32;9.95;;;2.00;;
33714;SDS011;20043;50.998;4.754;2023-08-17T00:46:58;8.00;;;2.10;;
33714;SDS011;20043;50.998;4.754;2023-08-17T00:49:24;7.15;;;2.38;;
33714;SDS011;20043;50.998;4.754;2023-08-17T00:51:50;5.57;;;2.10;;
33714;SDS011;20043;50.998;4.754;2023-08-17T00:54:17;4.88;;;2.20;;
33714;SDS011;20043;50.998;4.754;2023-08-17T00:56:48;3.22;;;1.90;;
33714;SDS011;20043;50.998;4.754;2023-08-17T00:59:14;6.03;;;2.20;;
33714;SDS011;20043;50.998;4.754;2023-08-17T01:01:40;4.03;;;2.30;;
33714;SDS011;20043;50.998;4.754;2023-08-17T01:04:06;5.55;;;2.17;;
33714;SDS011;20043;50.998;4.754;2023-08-17T01:06:31;6.13;;;2.20;;
33714;SDS011;20043;50.998;4.754;2023-08-17T01:08:57;8.10;;;2.20;;
33714;SDS011;20043;50.998;4.754;2023-08-17T01:11:34;7.20;;;2.30;;
33714;SDS011;20043;50.998;4.754;2023-08-17T01:14:05;5.72;;;2.10;;
33714;SDS011;20043;50.998;4.754;2023-08-17T01:16:34;8.20;;;2.15;;
33714;SDS011;20043;50.998;4.754;2023-08-17T01:19:06;6.57;;;2.15;;
33714;SDS011;20043;50.998;4.754;2023-08-17T01:21:41;9.15;;;2.58;;
33714;SDS011;20043;50.998;4.754;2023-08-17T01:24:08;5.18;;;2.22;;
33714;SDS011;20043;50.998;4.754;2023-08-17T01:26:34;8.15;;;2.40;;
33714;SDS011;20043;50.998;4.754;2023-08-17T01:28:59;6.35;;;2.15;;
33714;SDS011;20043;50.998;4.754;2023-08-17T01:31:36;7.68;;;2.28;;
33714;SDS011;20043;50.998;4.754;2023-08-17T01:34:10;8.35;;;2.58;;
33714;SDS011;20043;50.998;4.754;2023-08-17T01:36:43;7.55;;;2.45;;
33714;SDS011;20043;50.998;4.754;2023-08-17T01:39:17;6.82;;;2.22;;
33714;SDS011;20043;50.998;4.754;2023-08-17T01:41:43;5.82;;;2.40;;
33714;SDS011;20043;50.998;4.754;2023-08-17T01:44:10;8.85;;;2.28;;
33714;SDS011;20043;50.998;4.754;2023-08-17T01:46:36;6.50;;;2.38;;
33714;SDS011;20043;50.998;4.754;2023-08-17T01:49:02;11.98;;;2.53;;
33714;SDS011;20043;50.998;4.754;2023-08-17T01:51:27;4.60;;;2.35;;
33714;SDS011;20043;50.998;4.754;2023-08-17T01:53:53;5.05;;;2.28;;
33714;SDS011;20043;50.998;4.754;2023-08-17T01:56:19;6.72;;;2.42;;
33714;SDS011;20043;50.998;4.754;2023-08-17T01:58:44;6.03;;;2.33;;
33714;SDS011;20043;50.998;4.754;2023-08-17T02:01:10;6.22;;;2.60;;
33714;SDS011;20043;50.998;4.754;2023-08-17T02:03:35;5.22;;;2.70;;
33714;SDS011;20043;50.998;4.754;2023-08-17T02:06:01;7.63;;;2.90;;
33714;SDS011;20043;50.998;4.754;2023-08-17T02:08:33;9.82;;;2.30;;
33714;SDS011;20043;50.998;4.754;2023-08-17T02:11:00;5.72;;;2.45;;
33714;SDS011;20043;50.998;4.754;2023-08-17T02:13:26;6.85;;;2.25;;
33714;SDS011;20043;50.998;4.754;2023-08-17T02:15:52;6.50;;;2.20;;
33714;SDS011;20043;50.998;4.754;2023-08-17T02:18:18;5.40;;;2.38;;
33714;SDS011;20043;50.998;4.754;2023-08-17T02:20:43;5.30;;;2.50;;
33714;SDS011;20043;50.998;4.754;2023-08-17T02:23:10;5.13;;;2.20;;
33714;SDS011;20043;50.998;4.754;2023-08-17T02:25:39;5.53;;;2.38;;
33714;SDS011;20043;50.998;4.754;2023-08-17T02:28:05;6.30;;;2.60;;
33714;SDS011;20043;50.998;4.754;2023-08-17T02:30:31;8.80;;;2.35;;
33714;SDS011;20043;50.998;4.754;2023-08-17T02:32:56;7.30;;;2.58;;
33714;SDS011;20043;50.998;4.754;2023-08-17T02:35:22;6.53;;;2.50;;
33714;SDS011;20043;50.998;4.754;2023-08-17T02:37:48;7.45;;;2.78;;
33714;SDS011;20043;50.998;4.754;2023-08-17T02:40:14;6.32;;;2.70;;
33714;SDS011;20043;50.998;4.754;2023-08-17T02:42:39;7.78;;;2.75;;
33714;SDS011;20043;50.998;4.754;2023-08-17T02:45:05;7.45;;;2.78;;
33714;SDS011;20043;50.998;4.754;2023-08-17T02:47:32;7.40;;;2.30;;
33714;SDS011;20043;50.998;4.754;2023-08-17T02:49:58;9.68;;;2.65;;
33714;SDS011;20043;50.998;4.754;2023-08-17T02:52:23;6.57;;;2.60;;
33714;SDS011;20043;50.998;4.754;2023-08-17T02:54:49;8.43;;;2.60;;
33714;SDS011;20043;50.998;4.754;2023-08-17T02:57:15;4.43;;;2.30;;
33714;SDS011;20043;50.998;4.754;2023-08-17T02:59:40;6.63;;;2.83;;
33714;SDS011;20043;50.998;4.754;2023-08-17T03:02:06;9.27;;;3.00;;
33714;SDS011;20043;50.998;4.754;2023-08-17T03:04:32;5.35;;;2.53;;
33714;SDS011;20043;50.998;4.754;2023-08-17T03:06:58;4.78;;;2.50;;
33714;SDS011;20043;50.998;4.754;2023-08-17T03:09:23;7.80;;;2.88;;
33714;SDS011;20043;50.998;4.754;2023-08-17T03:11:49;7.47;;;3.00;;
33714;SDS011;20043;50.998;4.754;2023-08-17T03:14:15;10.30;;;2.60;;
33714;SDS011;20043;50.998;4.754;2023-08-17T03:16:40;7.40;;;2.90;;
33714;SDS011;20043;50.998;4.754;2023-08-17T03:19:06;10.43;;;3.10;;
33714;SDS011;20043;50.998;4.754;2023-08-17T03:21:33;8.30;;;2.78;;
33714;SDS011;20043;50.998;4.754;2023-08-17T03:23:59;7.53;;;2.67;;
33714;SDS011;20043;50.998;4.754;2023-08-17T03:26:25;6.80;;;2.78;;
33714;SDS011;20043;50.998;4.754;2023-08-17T03:28:50;11.38;;;2.85;;
33714;SDS011;20043;50.998;4.754;2023-08-17T03:31:16;7.80;;;3.15;;
33714;SDS011;20043;50.998;4.754;2023-08-17T03:33:41;6.82;;;2.60;;
33714;SDS011;20043;50.998;4.754;2023-08-17T03:36:07;7.50;;;2.55;;
33714;SDS011;20043;50.998;4.754;2023-08-17T03:38:33;7.68;;;2.70;;
33714;SDS011;20043;50.998;4.754;2023-08-17T03:40:58;8.32;;;2.63;;
33714;SDS011;20043;50.998;4.754;2023-08-17T03:43:24;8.10;;;2.42;;
33714;SDS011;20043;50.998;4.754;2023-08-17T03:45:51;7.03;;;2.50;;
33714;SDS011;20043;50.998;4.754;2023-08-17T03:48:16;10.00;;;2.65;;
33714;SDS011;20043;50.998;4.754;2023-08-17T03:50:42;7.15;;;2.83;;
33714;SDS011;20043;50.998;4.754;2023-08-17T03:53:08;10.13;;;3.08;;
33714;SDS011;20043;50.998;4.754;2023-08-17T03:55:34;7.57;;;2.58;;
33714;SDS011;20043;50.998;4.754;2023-08-17T03:57:59;7.50;;;2.47;;
33714;SDS011;20043;50.998;4.754;2023-08-17T04:00:25;7.47;;;3.10;;
33714;SDS011;20043;50.998;4.754;2023-08-17T04:02:50;7.18;;;2.83;;
33714;SDS011;20043;50.998;4.754;2023-08-17T04:05:16;7.03;;;2.60;;
33714;SDS011;20043;50.998;4.754;2023-08-17T04:07:42;10.88;;;3.42;;
33714;SDS011;20043;50.998;4.754;2023-08-17T04:10:07;5.65;;;2.67;;
33714;SDS011;20043;50.998;4.754;2023-08-17T04:12:33;6.75;;;3.15;;
33714;SDS011;20043;50.998;4.754;2023-08-17T04:14:59;4.95;;;2.80;;
33714;SDS011;20043;50.998;4.754;2023-08-17T04:17:25;11.55;;;2.90;;
33714;SDS011;20043;50.998;4.754;2023-08-17T04:19:51;10.43;;;3.00;;
33714;SDS011;20043;50.998;4.754;2023-08-17T04:22:17;8.75;;;2.70;;
33714;SDS011;20043;50.998;4.754;2023-08-17T04:24:42;7.60;;;2.60;;
33714;SDS011;20043;50.998;4.754;2023-08-17T04:27:08;6.85;;;2.72;;
33714;SDS011;20043;50.998;4.754;2023-08-17T04:29:34;5.07;;;2.53;;
33714;SDS011;20043;50.998;4.754;2023-08-17T04:31:59;6.93;;;3.15;;
33714;SDS011;20043;50.998;4.754;2023-08-17T04:34:25;8.68;;;2.63;;
33714;SDS011;20043;50.998;4.754;2023-08-17T04:36:51;4.60;;;2.72;;
33714;SDS011;20043;50.998;4.754;2023-08-17T04:39:16;8.38;;;3.08;;
33714;SDS011;20043;50.998;4.754;2023-08-17T04:41:42;7.85;;;2.95;;
33714;SDS011;20043;50.998;4.754;2023-08-17T04:44:08;10.50;;;3.40;;
33714;SDS011;20043;50.998;4.754;2023-08-17T04:46:34;5.85;;;2.85;;
33714;SDS011;20043;50.998;4.754;2023-08-17T04:49:01;11.15;;;3.15;;
33714;SDS011;20043;50.998;4.754;2023-08-17T04:51:26;5.82;;;2.63;;
33714;SDS011;20043;50.998;4.754;2023-08-17T04:53:52;9.55;;;3.55;;
33714;SDS011;20043;50.998;4.754;2023-08-17T04:56:18;7.93;;;2.85;;
33714;SDS011;20043;50.998;4.754;2023-08-17T04:58:43;7.65;;;2.88;;
33714;SDS011;20043;50.998;4.754;2023-08-17T05:01:09;7.40;;;2.75;;
33714;SDS011;20043;50.998;4.754;2023-08-17T05:03:35;8.75;;;3.30;;
33714;SDS011;20043;50.998;4.754;2023-08-17T05:06:01;6.53;;;2.72;;
33714;SDS011;20043;50.998;4.754;2023-08-17T05:08:26;10.77;;;3.10;;
33714;SDS011;20043;50.998;4.754;2023-08-17T05:10:52;8.57;;;3.03;;
33714;SDS011;20043;50.998;4.754;2023-08-17T05:13:18;15.95;;;3.72;;
33714;SDS011;20043;50.998;4.754;2023-08-17T05:15:43;8.60;;;2.80;;
33714;SDS011;20043;50.998;4.754;2023-08-17T05:18:10;6.68;;;2.75;;
33714;SDS011;20043;50.998;4.754;2023-08-17T05:20:35;5.47;;;2.70;;
33714;SDS011;20043;50.998;4.754;2023-08-17T05:23:01;5.93;;;2.60;;
33714;SDS011;20043;50.998;4.754;2023-08-17T05:25:27;10.35;;;3.75;;
33714;SDS011;20043;50.998;4.754;2023-08-17T05:27:54;9.20;;;2.75;;
33714;SDS011;20043;50.998;4.754;2023-08-17T05:30:20;8.63;;;2.85;;
33714;SDS011;20043;50.998;4.754;2023-08-17T05:32:45;9.38;;;3.38;;
33714;SDS011;20043;50.998;4.754;2023-08-17T05:35:11;11.82;;;2.88;;
33714;SDS011;20043;50.998;4.754;2023-08-17T05:37:37;8.43;;;3.33;;
33714;SDS011;20043;50.998;4.754;2023-08-17T05:40:02;8.60;;;3.00;;
33714;SDS011;20043;50.998;4.754;2023-08-17T05:42:29;10.82;;;3.33;;
33714;SDS011;20043;50.998;4.754;2023-08-17T05:44:55;6.57;;;2.67;;
33714;SDS011;20043;50.998;4.754;2023-08-17T05:47:21;6.85;;;3.08;;
33714;SDS011;20043;50.998;4.754;2023-08-17T05:49:46;10.45;;;3.33;;
33714;SDS011;20043;50.998;4.754;2023-08-17T05:52:12;9.80;;;2.72;;
33714;SDS011;20043;50.998;4.754;2023-08-17T05:54:38;11.60;;;3.33;;
33714;SDS011;20043;50.998;4.754;2023-08-17T05:57:04;7.20;;;3.22;;
33714;SDS011;20043;50.998;4.754;2023-08-17T05:59:30;7.78;;;3.17;;
33714;SDS011;20043;50.998;4.754;2023-08-17T06:01:55;11.43;;;3.67;;
33714;SDS011;20043;50.998;4.754;2023-08-17T06:04:21;9.73;;;3.20;;
33714;SDS011;20043;50.998;4.754;2023-08-17T06:06:47;7.53;;;3.15;;
33714;SDS011;20043;50.998;4.754;2023-08-17T06:09:12;10.10;;;3.00;;
33714;SDS011;20043;50.998;4.754;2023-08-17T06:11:39;9.02;;;3.03;;
33714;SDS011;20043;50.998;4.754;2023-08-17T06:14:04;10.93;;;3.50;;
33714;SDS011;20043;50.998;4.754;2023-08-17T06:16:30;13.10;;;3.28;;
33714;SDS011;20043;50.998;4.754;2023-08-17T06:18:56;14.43;;;3.20;;
33714;SDS011;20043;50.998;4.754;2023-08-17T06:21:22;8.00;;;3.30;;
33714;SDS011;20043;50.998;4.754;2023-08-17T06:23:48;11.55;;;3.53;;
33714;SDS011;20043;50.998;4.754;2023-08-17T06:26:13;10.45;;;3.53;;
33714;SDS011;20043;50.998;4.754;2023-08-17T06:28:39;12.95;;;4.03;;
33714;SDS011;20043;50.998;4.754;2023-08-17T06:31:05;7.85;;;3.13;;
33714;SDS011;20043;50.998;4.754;2023-08-17T06:33:30;9.40;;;3.03;;
33714;SDS011;20043;50.998;4.754;2023-08-17T06:35:56;10.68;;;3.50;;
33714;SDS011;20043;50.998;4.754;2023-08-17T06:38:21;9.60;;;3.33;;
33714;SDS011;20043;50.998;4.754;2023-08-17T06:40:47;8.63;;;3.05;;
33714;SDS011;20043;50.998;4.754;2023-08-17T06:43:13;10.20;;;3.30;;
33714;SDS011;20043;50.998;4.754;2023-08-17T06:45:39;14.07;;;3.88;;
33714;SDS011;20043;50.998;4.754;2023-08-17T06:48:04;6.47;;;3.33;;
33714;SDS011;20043;50.998;4.754;2023-08-17T06:50:30;7.30;;;3.42;;
33714;SDS011;20043;50.998;4.754;2023-08-17T06:52:56;8.60;;;3.25;;
33714;SDS011;20043;50.998;4.754;2023-08-17T06:55:21;10.07;;;3.17;;
33714;SDS011;20043;50.998;4.754;2023-08-17T06:57:47;9.05;;;3.63;;
33714;SDS011;20043;50.998;4.754;2023-08-17T07:00:17;11.63;;;3.60;;
33714;SDS011;20043;50.998;4.754;2023-08-17T07:02:45;10.18;;;3.15;;
33714;SDS011;20043;50.998;4.754;2023-08-17T07:05:17;8.95;;;2.90;;
33714;SDS011;20043;50.998;4.754;2023-08-17T07:07:43;7.60;;;3.10;;
33714;SDS011;20043;50.998;4.754;2023-08-17T07:10:09;7.28;;;3.17;;
33714;SDS011;20043;50.998;4.754;2023-08-17T07:12:38;13.40;;;3.25;;
33714;SDS011;20043;50.998;4.754;2023-08-17T07:15:04;12.80;;;3.00;;
33714;SDS011;20043;50.998;4.754;2023-08-17T07:17:30;7.57;;;3.00;;
33714;SDS011;20043;50.998;4.754;2023-08-17T07:19:55;11.23;;;3.47;;
33714;SDS011;20043;50.998;4.754;2023-08-17T07:22:21;7.93;;;3.08;;
33714;SDS011;20043;50.998;4.754;2023-08-17T07:24:47;8.80;;;3.35;;
33714;SDS011;20043;50.998;4.754;2023-08-17T07:27:12;10.50;;;3.58;;
33714;SDS011;20043;50.998;4.754;2023-08-17T07:29:38;12.93;;;3.53;;
33714;SDS011;20043;50.998;4.754;2023-08-17T07:32:04;11.30;;;3.45;;
33714;SDS011;20043;50.998;4.754;2023-08-17T07:34:29;11.35;;;3.10;;
33714;SDS011;20043;50.998;4.754;2023-08-17T07:36:56;10.80;;;3.55;;
33714;SDS011;20043;50.998;4.754;2023-08-17T07:39:22;10.98;;;3.00;;
33714;SDS011;20043;50.998;4.754;2023-08-17T07:41:48;6.30;;;3.05;;
33714;SDS011;20043;50.998;4.754;2023-08-17T07:44:13;8.98;;;3.17;;
33714;SDS011;20043;50.998;4.754;2023-08-17T07:46:39;5.95;;;3.40;;
33714;SDS011;20043;50.998;4.754;2023-08-17T07:49:05;7.13;;;3.22;;
33714;SDS011;20043;50.998;4.754;2023-08-17T07:51:31;13.15;;;3.83;;
33714;SDS011;20043;50.998;4.754;2023-08-17T07:53:59;12.52;;;4.15;;
33714;SDS011;20043;50.998;4.754;2023-08-17T07:56:25;9.27;;;3.05;;
33714;SDS011;20043;50.998;4.754;2023-08-17T07:58:51;11.55;;;4.20;;
33714;SDS011;20043;50.998;4.754;2023-08-17T08:01:18;14.10;;;3.70;;
33714;SDS011;20043;50.998;4.754;2023-08-17T08:03:43;7.65;;;3.22;;
33714;SDS011;20043;50.998;4.754;2023-08-17T08:06:09;8.50;;;3.45;;
33714;SDS011;20043;50.998;4.754;2023-08-17T08:08:34;7.22;;;3.65;;
33714;SDS011;20043;50.998;4.754;2023-08-17T08:11:00;10.85;;;3.33;;
33714;SDS011;20043;50.998;4.754;2023-08-17T08:13:26;8.38;;;3.20;;
33714;SDS011;20043;50.998;4.754;2023-08-17T08:15:51;10.15;;;3.65;;
33714;SDS011;20043;50.998;4.754;2023-08-17T08:18:17;9.35;;;3.65;;
33714;SDS011;20043;50.998;4.754;2023-08-17T08:20:42;9.65;;;3.45;;
33714;SDS011;20043;50.998;4.754;2023-08-17T08:23:08;9.50;;;4.00;;
33714;SDS011;20043;50.998;4.754;2023-08-17T08:25:34;10.48;;;3.28;;
33714;SDS011;20043;50.998;4.754;2023-08-17T08:27:59;8.00;;;4.05;;
33714;SDS011;20043;50.998;4.754;2023-08-17T08:30:25;9.75;;;3.90;;
33714;SDS011;20043;50.998;4.754;2023-08-17T08:32:51;10.10;;;3.92;;
33714;SDS011;20043;50.998;4.754;2023-08-17T08:35:16;7.45;;;3.95;;
33714;SDS011;20043;50.998;4.754;2023-08-17T08:37:42;11.02;;;3.50;;
33714;SDS011;20043;50.998;4.754;2023-08-17T08:40:10;7.20;;;3.55;;
33714;SDS011;20043;50.998;4.754;2023-08-17T08:42:38;16.67;;;3.95;;
33714;SDS011;20043;50.998;4.754;2023-08-17T08:45:03;7.38;;;3.42;;
33714;SDS011;20043;50.998;4.754;2023-08-17T08:47:30;7.20;;;3.85;;
33714;SDS011;20043;50.998;4.754;2023-08-17T08:49:59;9.27;;;3.65;;
33714;SDS011;20043;50.998;4.754;2023-08-17T08:52:32;9.60;;;3.30;;
33714;SDS011;20043;50.998;4.754;2023-08-17T08:55:17;9.48;;;4.07;;
33714;SDS011;20043;50.998;4.754;2023-08-17T08:57:43;7.70;;;4.05;;
33714;SDS011;20043;50.998;4.754;2023-08-17T09:00:11;11.60;;;3.88;;
33714;SDS011;20043;50.998;4.754;2023-08-17T09:02:37;11.55;;;4.00;;
33714;SDS011;20043;50.998;4.754;2023-08-17T09:05:05;10.23;;;4.32;;
33714;SDS011;20043;50.998;4.754;2023-08-17T09:07:31;11.90;;;4.15;;
33714;SDS011;20043;50.998;4.754;2023-08-17T09:09:59;10.48;;;4.15;;
33714;SDS011;20043;50.998;4.754;2023-08-17T09:12:25;10.55;;;4.30;;
33714;SDS011;20043;50.998;4.754;2023-08-17T09:14:50;8.50;;;4.00;;
33714;SDS011;20043;50.998;4.754;2023-08-17T09:17:26;8.48;;;4.38;;
33714;SDS011;20043;50.998;4.754;2023-08-17T09:19:52;9.48;;;4.20;;
33714;SDS011;20043;50.998;4.754;2023-08-17T09:22:24;11.00;;;4.60;;
33714;SDS011;20043;50.998;4.754;2023-08-17T09:25:07;13.10;;;4.80;;
33714;SDS011;20043;50.998;4.754;2023-08-17T09:27:38;10.65;;;4.45;;
33714;SDS011;20043;50.998;4.754;2023-08-17T09:30:07;9.23;;;5.00;;
33714;SDS011;20043;50.998;4.754;2023-08-17T09:32:35;10.32;;;4.47;;
33714;SDS011;20043;50.998;4.754;2023-08-17T09:35:05;9.15;;;4.72;;
33714;SDS011;20043;50.998;4.754;2023-08-17T09:37:31;12.02;;;6.45;;
33714;SDS011;20043;50.998;4.754;2023-08-17T09:39:57;15.95;;;4.75;;
33714;SDS011;20043;50.998;4.754;2023-08-17T09:42:23;9.70;;;5.15;;
33714;SDS011;20043;50.998;4.754;2023-08-17T09:44:50;9.90;;;5.40;;
33714;SDS011;20043;50.998;4.754;2023-08-17T09:47:17;11.60;;;5.00;;
33714;SDS011;20043;50.998;4.754;2023-08-17T09:49:52;11.52;;;5.20;;
33714;SDS011;20043;50.998;4.754;2023-08-17T09:54:45;9.63;;;4.72;;
33714;SDS011;20043;50.998;4.754;2023-08-17T09:57:12;9.60;;;4.45;;
33714;SDS011;20043;50.998;4.754;2023-08-17T09:59:39;11.75;;;5.03;;
33714;SDS011;20043;50.998;4.754;2023-08-17T10:02:08;8.30;;;5.03;;
33714;SDS011;20043;50.998;4.754;2023-08-17T10:04:52;11.40;;;4.70;;
33714;SDS011;20043;50.998;4.754;2023-08-17T10:07:19;10.52;;;5.35;;
33714;SDS011;20043;50.998;4.754;2023-08-17T10:09:48;15.65;;;5.40;;
33714;SDS011;20043;50.998;4.754;2023-08-17T10:12:30;14.52;;;6.05;;
33714;SDS011;20043;50.998;4.754;2023-08-17T10:15:06;15.45;;;7.00;;
33714;SDS011;20043;50.998;4.754;2023-08-17T10:17:35;15.05;;;7.90;;
33714;SDS011;20043;50.998;4.754;2023-08-17T10:20:08;12.88;;;7.65;;
33714;SDS011;20043;50.998;4.754;2023-08-17T10:22:43;14.30;;;8.77;;
33714;SDS011;20043;50.998;4.754;2023-08-17T10:25:24;17.25;;;9.85;;
33714;SDS011;20043;50.998;4.754;2023-08-17T10:27:52;20.30;;;9.57;;
33714;SDS011;20043;50.998;4.754;2023-08-17T10:30:19;16.48;;;8.52;;
33714;SDS011;20043;50.998;4.754;2023-08-17T10:32:45;19.67;;;9.18;;
33714;SDS011;20043;50.998;4.754;2023-08-17T10:35:11;13.48;;;8.80;;
33714;SDS011;20043;50.998;4.754;2023-08-17T10:37:38;19.58;;;9.23;;
33714;SDS011;20043;50.998;4.754;2023-08-17T10:40:04;17.40;;;8.85;;
33714;SDS011;20043;50.998;4.754;2023-08-17T10:42:31;17.75;;;9.57;;
33714;SDS011;20043;50.998;4.754;2023-08-17T10:44:58;19.55;;;9.38;;
33714;SDS011;20043;50.998;4.754;2023-08-17T10:47:27;13.85;;;9.07;;
33714;SDS011;20043;50.998;4.754;2023-08-17T10:49:58;20.20;;;9.40;;
33714;SDS011;20043;50.998;4.754;2023-08-17T10:52:32;14.68;;;8.60;;
33714;SDS011;20043;50.998;4.754;2023-08-17T10:55:00;20.55;;;10.00;;
33714;SDS011;20043;50.998;4.754;2023-08-17T11:00:18;18.88;;;9.05;;
33714;SDS011;20043;50.998;4.754;2023-08-17T11:02:53;17.80;;;8.25;;
33714;SDS011;20043;50.998;4.754;2023-08-17T11:05:40;14.52;;;8.73;;
33714;SDS011;20043;50.998;4.754;2023-08-17T11:08:08;17.38;;;9.70;;
33714;SDS011;20043;50.998;4.754;2023-08-17T11:13:33;17.80;;;9.47;;
33714;SDS011;20043;50.998;4.754;2023-08-17T11:16:01;19.38;;;8.63;;
33714;SDS011;20043;50.998;4.754;2023-08-17T11:18:28;12.95;;;9.02;;
33714;SDS011;20043;50.998;4.754;2023-08-17T11:20:54;16.30;;;9.40;;
33714;SDS011;20043;50.998;4.754;2023-08-17T11:23:20;13.32;;;8.13;;
33714;SDS011;20043;50.998;4.754;2023-08-17T11:25:48;15.75;;;7.72;;
33714;SDS011;20043;50.998;4.754;2023-08-17T11:28:16;13.95;;;7.28;;
33714;SDS011;20043;50.998;4.754;2023-08-17T11:30:42;13.35;;;6.90;;
33714;SDS011;20043;50.998;4.754;2023-08-17T11:33:08;16.42;;;8.55;;
33714;SDS011;20043;50.998;4.754;2023-08-17T11:35:34;16.73;;;7.82;;
33714;SDS011;20043;50.998;4.754;2023-08-17T11:38:04;16.05;;;9.32;;
33714;SDS011;20043;50.998;4.754;2023-08-17T11:40:31;14.98;;;8.70;;
33714;SDS011;20043;50.998;4.754;2023-08-17T11:42:57;18.63;;;9.80;;
33714;SDS011;20043;50.998;4.754;2023-08-17T11:45:23;16.35;;;9.40;;
33714;SDS011;20043;50.998;4.754;2023-08-17T11:47:49;17.55;;;9.00;;
33714;SDS011;20043;50.998;4.754;2023-08-17T11:50:16;21.13;;;9.63;;
33714;SDS011;20043;50.998;4.754;2023-08-17T11:52:43;14.13;;;9.25;;
33714;SDS011;20043;50.998;4.754;2023-08-17T11:55:09;19.13;;;8.93;;
33714;SDS011;20043;50.998;4.754;2023-08-17T11:57:35;15.52;;;8.85;;
33714;SDS011;20043;50.998;4.754;2023-08-17T12:00:02;14.27;;;9.13;;
33714;SDS011;20043;50.998;4.754;2023-08-17T12:02:31;14.35;;;7.90;;
33714;SDS011;20043;50.998;4.754;2023-08-17T12:04:58;14.90;;;7.70;;
33714;SDS011;20043;50.998;4.754;2023-08-17T12:07:31;15.30;;;7.43;;
33714;SDS011;20043;50.998;4.754;2023-08-17T12:09:57;13.13;;;7.32;;
33714;SDS011;20043;50.998;4.754;2023-08-17T12:12:23;14.52;;;8.75;;
33714;SDS011;20043;50.998;4.754;2023-08-17T12:14:48;15.05;;;8.27;;
33714;SDS011;20043;50.998;4.754;2023-08-17T12:17:17;14.73;;;8.57;;
33714;SDS011;20043;50.998;4.754;2023-08-17T12:19:44;18.02;;;8.48;;
33714;SDS011;20043;50.998;4.754;2023-08-17T12:22:13;14.30;;;9.10;;
33714;SDS011;20043;50.998;4.754;2023-08-17T12:24:45;17.92;;;8.25;;
33714;SDS011;20043;50.998;4.754;2023-08-17T12:27:13;14.80;;;8.13;;
33714;SDS011;20043;50.998;4.754;2023-08-17T12:29:48;16.15;;;8.00;;
33714;SDS011;20043;50.998;4.754;2023-08-17T12:32:17;10.88;;;7.32;;
33714;SDS011;20043;50.998;4.754;2023-08-17T12:34:44;13.35;;;7.72;;
33714;SDS011;20043;50.998;4.754;2023-08-17T12:37:10;11.55;;;7.60;;
33714;SDS011;20043;50.998;4.754;2023-08-17T12:39:36;14.45;;;7.93;;
33714;SDS011;20043;50.998;4.754;2023-08-17T12:42:02;14.93;;;8.25;;
33714;SDS011;20043;50.998;4.754;2023-08-17T12:44:28;15.48;;;8.77;;
33714;SDS011;20043;50.998;4.754;2023-08-17T12:46:54;14.38;;;8.52;;
33714;SDS011;20043;50.998;4.754;2023-08-17T12:49:20;19.27;;;8.43;;
33714;SDS011;20043;50.998;4.754;2023-08-17T12:51:46;15.40;;;8.57;;
33714;SDS011;20043;50.998;4.754;2023-08-17T12:54:11;14.32;;;8.48;;
33714;SDS011;20043;50.998;4.754;2023-08-17T12:56:37;14.73;;;8.52;;
33714;SDS011;20043;50.998;4.754;2023-08-17T12:59:02;16.70;;;9.68;;
33714;SDS011;20043;50.998;4.754;2023-08-17T13:01:28;17.80;;;9.38;;
33714;SDS011;20043;50.998;4.754;2023-08-17T13:03:54;14.02;;;9.07;;
33714;SDS011;20043;50.998;4.754;2023-08-17T13:06:19;14.93;;;10.07;;
33714;SDS011;20043;50.998;4.754;2023-08-17T13:08:45;16.70;;;10.43;;
33714;SDS011;20043;50.998;4.754;2023-08-17T13:11:11;15.00;;;9.40;;
33714;SDS011;20043;50.998;4.754;2023-08-17T13:13:37;17.27;;;9.63;;
33714;SDS011;20043;50.998;4.754;2023-08-17T13:16:03;16.00;;;9.80;;
33714;SDS011;20043;50.998;4.754;2023-08-17T13:18:28;13.63;;;9.07;;
33714;SDS011;20043;50.998;4.754;2023-08-17T13:20:54;18.02;;;9.68;;
33714;SDS011;20043;50.998;4.754;2023-08-17T13:23:20;14.98;;;9.30;;
33714;SDS011;20043;50.998;4.754;2023-08-17T13:25:45;19.98;;;10.95;;
33714;SDS011;20043;50.998;4.754;2023-08-17T13:28:11;13.40;;;10.30;;
33714;SDS011;20043;50.998;4.754;2023-08-17T13:30:40;15.48;;;10.25;;
33714;SDS011;20043;50.998;4.754;2023-08-17T13:33:05;16.73;;;11.07;;
33714;SDS011;20043;50.998;4.754;2023-08-17T13:35:32;18.58;;;10.88;;
33714;SDS011;20043;50.998;4.754;2023-08-17T13:37:58;21.13;;;12.65;;
33714;SDS011;20043;50.998;4.754;2023-08-17T13:40:24;23.90;;;12.73;;
33714;SDS011;20043;50.998;4.754;2023-08-17T13:42:50;20.90;;;13.65;;
33714;SDS011;20043;50.998;4.754;2023-08-17T13:45:16;15.13;;;12.30;;
33714;SDS011;20043;50.998;4.754;2023-08-17T13:47:42;22.25;;;13.25;;
33714;SDS011;20043;50.998;4.754;2023-08-17T13:50:07;22.42;;;14.43;;
33714;SDS011;20043;50.998;4.754;2023-08-17T13:52:33;20.55;;;13.27;;
33714;SDS011;20043;50.998;4.754;2023-08-17T13:54:59;17.85;;;15.00;;
33714;SDS011;20043;50.998;4.754;2023-08-17T13:57:25;20.25;;;14.35;;
33714;SDS011;20043;50.998;4.754;2023-08-17T13:59:51;17.52;;;13.52;;
33714;SDS011;20043;50.998;4.754;2023-08-17T14:02:17;22.48;;;13.43;;
33714;SDS011;20043;50.998;4.754;2023-08-17T14:04:43;20.13;;;13.30;;
33714;SDS011;20043;50.998;4.754;2023-08-17T14:07:16;18.55;;;13.27;;
33714;SDS011;20043;50.998;4.754;2023-08-17T14:09:41;19.23;;;12.77;;
33714;SDS011;20043;50.998;4.754;2023-08-17T14:12:07;18.42;;;11.27;;
33714;SDS011;20043;50.998;4.754;2023-08-17T14:14:33;17.20;;;11.40;;
33714;SDS011;20043;50.998;4.754;2023-08-17T14:16:59;15.57;;;10.45;;
33714;SDS011;20043;50.998;4.754;2023-08-17T14:19:25;16.17;;;12.07;;
33714;SDS011;20043;50.998;4.754;2023-08-17T14:21:51;15.43;;;11.18;;
33714;SDS011;20043;50.998;4.754;2023-08-17T14:24:17;16.33;;;13.13;;
33714;SDS011;20043;50.998;4.754;2023-08-17T14:26:43;14.20;;;12.07;;
33714;SDS011;20043;50.998;4.754;2023-08-17T14:29:09;16.90;;;12.00;;
33714;SDS011;20043;50.998;4.754;2023-08-17T14:31:34;16.58;;;12.43;;
33714;SDS011;20043;50.998;4.754;2023-08-17T14:34:00;16.70;;;10.57;;
33714;SDS011;20043;50.998;4.754;2023-08-17T14:36:25;14.35;;;10.57;;
33714;SDS011;20043;50.998;4.754;2023-08-17T14:38:51;22.65;;;12.93;;
33714;SDS011;20043;50.998;4.754;2023-08-17T14:41:17;17.92;;;12.82;;
33714;SDS011;20043;50.998;4.754;2023-08-17T14:43:42;20.75;;;13.13;;
33714;SDS011;20043;50.998;4.754;2023-08-17T14:46:08;20.10;;;12.70;;